createdAt,value
2023-04-26T00:02:07.715Z,7.07
2023-04-26T00:04:40.494Z,7.03
2023-04-26T00:07:10.794Z,7.01
2023-04-26T00:09:42.120Z,6.97
2023-04-26T00:12:12.408Z,6.93
2023-04-26T00:14:42.490Z,6.92
2023-04-26T00:17:12.788Z,6.90
2023-04-26T00:19:45.378Z,6.85
2023-04-26T00:22:15.610Z,6.82
2023-04-26T00:24:45.591Z,6.78
2023-04-26T00:27:15.952Z,6.75
2023-04-26T00:29:46.227Z,6.72
2023-04-26T00:32:16.166Z,6.70
2023-04-26T00:34:48.794Z,6.66
2023-04-26T00:37:18.628Z,6.63
2023-04-26T00:39:48.932Z,6.61
2023-04-26T00:42:19.683Z,6.60
2023-04-26T00:44:50.524Z,6.61
2023-04-26T00:47:20.646Z,6.60
2023-04-26T00:49:53.501Z,6.60
2023-04-26T00:52:23.772Z,6.58
2023-04-26T00:54:53.912Z,6.54
2023-04-26T00:57:24.617Z,6.51
2023-04-26T00:59:54.699Z,6.48
2023-04-26T01:02:24.783Z,6.43
2023-04-26T01:04:57.428Z,6.39
2023-04-26T01:07:27.568Z,6.35
2023-04-26T01:09:59.834Z,6.31
2023-04-26T01:12:30.712Z,6.27
2023-04-26T01:15:01.347Z,6.23
2023-04-26T01:17:31.337Z,6.20
2023-04-26T01:20:04.155Z,6.17
2023-04-26T01:22:38.637Z,6.14
2023-04-26T01:25:10.420Z,6.12
2023-04-26T01:27:40.470Z,6.09
2023-04-26T01:30:12.998Z,6.06
2023-04-26T01:32:43.057Z,6.06
2023-04-26T01:35:13.089Z,6.03
2023-04-26T01:37:45.826Z,6.01
2023-04-26T01:40:16.955Z,5.98
2023-04-26T01:42:46.792Z,5.96
2023-04-26T01:45:17.625Z,5.92
2023-04-26T01:47:48.098Z,5.91
2023-04-26T01:50:18.283Z,5.86
2023-04-26T01:52:50.766Z,5.82
2023-04-26T01:55:20.602Z,5.80
2023-04-26T01:57:50.464Z,5.79
2023-04-26T02:00:20.962Z,5.78
2023-04-26T02:02:51.127Z,5.77
2023-04-26T02:05:21.033Z,5.76
2023-04-26T02:07:53.847Z,5.76
2023-04-26T02:10:23.652Z,5.77
2023-04-26T02:12:53.657Z,5.77
2023-04-26T02:15:23.830Z,5.77
2023-04-26T02:17:54.217Z,5.77
2023-04-26T02:20:24.456Z,5.75
2023-04-26T02:22:57.157Z,5.70
2023-04-26T02:25:27.397Z,5.68
2023-04-26T02:27:57.303Z,5.65
2023-04-26T02:30:27.151Z,5.62
2023-04-26T02:32:57.718Z,5.59
2023-04-26T02:35:28.013Z,5.58
2023-04-26T02:38:00.640Z,5.54
2023-04-26T02:40:30.829Z,5.49
2023-04-26T02:43:00.773Z,5.46
2023-04-26T02:45:30.702Z,5.42
2023-04-26T02:48:00.853Z,5.40
2023-04-26T02:50:30.696Z,5.39
2023-04-26T02:53:03.777Z,5.38
2023-04-26T02:55:33.671Z,5.36
2023-04-26T02:58:03.708Z,5.34
2023-04-26T03:00:34.537Z,5.31
2023-04-26T03:03:04.893Z,5.29
2023-04-26T03:05:34.937Z,5.25
2023-04-26T03:08:08.084Z,5.24
2023-04-26T03:10:37.868Z,5.20
2023-04-26T03:13:07.865Z,5.18
2023-04-26T03:15:37.790Z,5.16
2023-04-26T03:18:07.879Z,5.13
2023-04-26T03:20:38.024Z,5.10
2023-04-26T03:23:10.756Z,5.11
2023-04-26T03:25:40.700Z,5.13
2023-04-26T03:28:10.666Z,5.13
2023-04-26T03:30:40.561Z,5.15
2023-04-26T03:33:10.524Z,5.15
2023-04-26T03:35:40.411Z,5.14
2023-04-26T03:38:13.248Z,5.12
2023-04-26T03:40:43.148Z,5.09
2023-04-26T03:43:13.042Z,5.06
2023-04-26T03:45:43.056Z,5.02
2023-04-26T03:48:13.040Z,4.98
2023-04-26T03:50:45.279Z,4.95
2023-04-26T03:53:17.997Z,4.92
2023-04-26T03:55:48.171Z,4.90
2023-04-26T03:58:18.581Z,4.88
2023-04-26T04:00:48.477Z,4.85
2023-04-26T04:03:21.398Z,4.83
2023-04-26T04:05:51.659Z,4.83
2023-04-26T04:08:24.120Z,4.82
2023-04-26T04:10:54.088Z,4.80
2023-04-26T04:13:23.977Z,4.77
2023-04-26T04:15:54.623Z,4.74
2023-04-26T04:18:24.612Z,4.71
2023-04-26T04:20:54.596Z,4.69
2023-04-26T04:23:27.796Z,4.69
2023-04-26T04:25:58.133Z,4.64
2023-04-26T04:28:28.213Z,4.62
2023-04-26T04:30:58.441Z,4.61
2023-04-26T04:33:28.843Z,4.59
2023-04-26T04:35:58.853Z,4.58
2023-04-26T04:38:31.960Z,4.58
2023-04-26T04:41:01.937Z,4.59
2023-04-26T04:43:31.885Z,4.61
2023-04-26T04:46:01.854Z,4.64
2023-04-26T04:48:31.774Z,4.63
2023-04-26T04:51:02.570Z,4.63
2023-04-26T04:53:35.170Z,4.63
2023-04-26T04:56:08.986Z,4.62
2023-04-26T04:58:39.310Z,4.62
2023-04-26T05:01:09.247Z,4.60
2023-04-26T05:03:39.682Z,4.59
2023-04-26T05:06:10.085Z,4.59
2023-04-26T05:08:42.685Z,4.59
2023-04-26T05:11:12.515Z,4.59
2023-04-26T05:13:42.339Z,4.60
2023-04-26T05:16:12.218Z,4.60
2023-04-26T05:18:42.091Z,4.61
2023-04-26T05:21:12.272Z,4.62
2023-04-26T05:23:44.959Z,4.62
2023-04-26T05:26:18.283Z,4.63
2023-04-26T05:28:48.322Z,4.63
2023-04-26T05:31:18.386Z,4.63
2023-04-26T05:33:48.280Z,4.65
2023-04-26T05:36:18.397Z,4.67
2023-04-26T05:38:51.288Z,4.69
2023-04-26T05:41:21.368Z,4.70
2023-04-26T05:43:51.502Z,4.71
2023-04-26T05:46:21.894Z,4.74
2023-04-26T05:48:52.296Z,4.78
2023-04-26T05:51:22.574Z,4.80
2023-04-26T05:53:55.422Z,4.83
2023-04-26T05:56:25.991Z,4.86
2023-04-26T05:58:56.219Z,4.91
2023-04-26T06:01:26.109Z,4.96
2023-04-26T06:03:59.883Z,5.01
2023-04-26T06:06:32.345Z,5.05
2023-04-26T06:09:05.080Z,5.11
2023-04-26T06:11:35.031Z,5.18
2023-04-26T06:14:05.802Z,5.30
2023-04-26T06:16:36.507Z,5.41
2023-04-26T06:19:06.601Z,5.52
2023-04-26T06:21:36.521Z,5.64
2023-04-26T06:24:10.381Z,5.79
2023-04-26T06:26:40.231Z,6.04
2023-04-26T06:29:10.122Z,6.30
2023-04-26T06:31:40.268Z,6.53
2023-04-26T06:34:10.378Z,6.79
2023-04-26T06:36:40.290Z,7.14
2023-04-26T06:39:12.774Z,7.55
2023-04-26T06:41:43.656Z,7.71
2023-04-26T06:44:13.600Z,7.79
2023-04-26T06:46:43.617Z,7.92
2023-04-26T06:49:13.620Z,8.02
2023-04-26T06:51:43.745Z,8.09
2023-04-26T06:54:16.572Z,8.23
2023-04-26T06:56:46.426Z,8.31
2023-04-26T06:59:16.334Z,8.44
2023-04-26T07:01:46.303Z,8.54
2023-04-26T07:04:18.531Z,8.62
2023-04-26T07:06:48.741Z,8.82
2023-04-26T07:09:21.369Z,9.10
2023-04-26T07:11:51.355Z,9.43
2023-04-26T07:14:21.378Z,9.85
2023-04-26T07:16:51.498Z,10.02
2023-04-26T07:19:21.305Z,10.27
2023-04-26T07:21:51.260Z,10.48
2023-04-26T07:24:23.782Z,10.68
2023-04-26T07:26:53.654Z,10.81
2023-04-26T07:29:23.572Z,10.88
2023-04-26T07:31:53.479Z,11.07
2023-04-26T07:34:23.386Z,11.13
2023-04-26T07:36:53.399Z,11.31
2023-04-26T07:39:26.028Z,11.50
2023-04-26T07:41:56.247Z,11.44
2023-04-26T07:44:26.125Z,11.41
2023-04-26T07:46:56.163Z,11.36
2023-04-26T07:49:26.139Z,11.26
2023-04-26T07:51:56.696Z,11.18
2023-04-26T07:54:29.254Z,11.07
2023-04-26T07:56:59.176Z,11.00
2023-04-26T07:59:29.033Z,10.99
2023-04-26T08:01:59.056Z,11.00
2023-04-26T08:04:38.240Z,11.02
2023-04-26T08:07:08.420Z,11.13
2023-04-26T08:09:41.097Z,11.21
2023-04-26T08:12:11.521Z,11.39
2023-04-26T08:14:41.838Z,11.51
2023-04-26T08:17:12.733Z,11.58
2023-04-26T08:19:42.864Z,11.68
2023-04-26T08:22:12.930Z,11.71
2023-04-26T08:24:51.203Z,11.68
2023-04-26T08:27:22.092Z,11.70
2023-04-26T08:29:52.201Z,11.88
2023-04-26T08:32:22.367Z,12.00
2023-04-26T08:34:52.219Z,11.90
2023-04-26T08:37:22.164Z,11.82
2023-04-26T08:39:54.628Z,11.72
2023-04-26T08:42:29.411Z,11.68
2023-04-26T08:45:03.687Z,11.61
2023-04-26T08:47:41.617Z,11.63
2023-04-26T08:50:15.125Z,11.74
2023-04-26T08:52:46.235Z,11.90
2023-04-26T08:55:20.360Z,12.08
2023-04-26T08:57:51.646Z,12.25
2023-04-26T09:00:23.642Z,12.33
2023-04-26T09:02:55.307Z,12.32
2023-04-26T09:05:27.226Z,12.25
2023-04-26T09:08:00.905Z,12.17
2023-04-26T09:10:34.081Z,12.06
2023-04-26T09:13:04.043Z,12.04
2023-04-26T09:15:33.966Z,12.02
2023-04-26T09:18:22.341Z,11.96
2023-04-26T09:21:07.175Z,11.99
2023-04-26T09:23:37.355Z,12.10
2023-04-26T09:26:23.100Z,12.11
2023-04-26T09:28:53.483Z,12.20
2023-04-26T09:31:41.231Z,12.15
2023-04-26T09:34:12.579Z,12.27
2023-04-26T09:36:53.909Z,12.30
2023-04-26T09:39:34.616Z,12.35
2023-04-26T09:42:07.958Z,12.43
2023-04-26T09:44:38.340Z,12.46
2023-04-26T09:47:10.609Z,12.49
2023-04-26T09:49:50.616Z,12.51
2023-04-26T09:52:22.044Z,12.57
2023-04-26T09:54:54.603Z,12.67
2023-04-26T09:57:27.129Z,12.78
2023-04-26T09:59:58.014Z,12.89
2023-04-26T10:02:30.401Z,12.96
2023-04-26T10:05:02.398Z,13.06
2023-04-26T10:07:33.667Z,13.07
2023-04-26T10:10:05.140Z,13.05
2023-04-26T10:12:37.882Z,12.91
2023-04-26T10:15:11.210Z,12.86
2023-04-26T10:17:41.525Z,12.78
2023-04-26T10:20:15.262Z,12.79
2023-04-26T10:22:49.213Z,12.75
2023-04-26T10:25:19.114Z,12.72
2023-04-26T10:27:55.962Z,12.63
2023-04-26T10:30:26.286Z,12.66
2023-04-26T10:33:20.795Z,12.62
2023-04-26T10:36:11.391Z,12.60
2023-04-26T10:38:43.158Z,12.58
2023-04-26T10:41:32.563Z,12.56
2023-04-26T10:44:49.957Z,12.65
2023-04-26T10:47:29.026Z,12.71
2023-04-26T10:50:07.535Z,12.83
2023-04-26T10:52:38.122Z,12.89
2023-04-26T10:55:10.510Z,12.96
2023-04-26T10:57:51.706Z,13.03
2023-04-26T11:00:42.568Z,13.13
2023-04-26T11:03:15.732Z,13.29
2023-04-26T11:05:57.262Z,13.27
2023-04-26T11:08:32.199Z,13.25
2023-04-26T11:11:10.018Z,13.37
2023-04-26T11:13:41.824Z,13.55
2023-04-26T11:16:16.000Z,13.71
2023-04-26T11:18:47.853Z,13.90
2023-04-26T11:21:19.819Z,13.96
2023-04-26T11:23:56.531Z,14.24
2023-04-26T11:26:27.019Z,14.58
2023-04-26T11:28:56.935Z,14.77
2023-04-26T11:31:29.493Z,15.07
2023-04-26T11:34:06.906Z,15.22
2023-04-26T11:36:39.752Z,15.06
2023-04-26T11:39:13.057Z,15.30
2023-04-26T11:41:44.103Z,15.23
2023-04-26T11:44:14.924Z,15.03
2023-04-26T11:46:48.746Z,14.73
2023-04-26T11:49:20.295Z,14.57
2023-04-26T11:51:51.992Z,14.62
2023-04-26T11:54:32.685Z,14.66
2023-04-26T11:57:03.051Z,14.73
2023-04-26T11:59:34.215Z,14.82
2023-04-26T12:02:10.400Z,14.90
2023-04-26T12:04:41.623Z,15.13
2023-04-26T12:07:11.836Z,15.34
2023-04-26T12:09:44.458Z,15.60
2023-04-26T12:12:14.554Z,15.89
2023-04-26T12:14:45.900Z,16.10
2023-04-26T12:17:18.789Z,16.01
2023-04-26T12:19:53.353Z,15.79
2023-04-26T12:22:24.706Z,15.77
2023-04-26T12:25:08.271Z,15.63
2023-04-26T12:27:39.839Z,15.59
2023-04-26T12:30:11.523Z,15.63
2023-04-26T12:32:44.698Z,15.58
2023-04-26T12:35:14.650Z,15.62
2023-04-26T12:37:44.508Z,15.66
2023-04-26T12:40:16.516Z,15.66
2023-04-26T12:42:51.301Z,15.50
2023-04-26T12:45:22.420Z,15.53
2023-04-26T12:47:55.034Z,15.58
2023-04-26T12:50:25.028Z,15.62
2023-04-26T12:52:55.370Z,15.64
2023-04-26T12:55:25.383Z,15.58
2023-04-26T12:57:58.385Z,15.41
2023-04-26T13:00:28.255Z,15.23
2023-04-26T13:03:01.031Z,15.21
2023-04-26T13:05:32.497Z,15.15
2023-04-26T13:08:02.826Z,14.94
2023-04-26T13:10:33.181Z,14.91
2023-04-26T13:13:03.260Z,15.04
2023-04-26T13:15:33.236Z,15.05
2023-04-26T13:18:06.600Z,15.07
2023-04-26T13:20:37.214Z,15.02
2023-04-26T13:23:07.239Z,15.07
2023-04-26T13:25:37.075Z,15.18
2023-04-26T13:28:08.035Z,15.22
2023-04-26T13:30:38.189Z,15.17
2023-04-26T13:33:11.287Z,15.07
2023-04-26T13:35:41.378Z,15.10
2023-04-26T13:38:11.629Z,15.15
2023-04-26T13:40:41.626Z,15.24
2023-04-26T13:43:11.931Z,15.31
2023-04-26T13:45:41.805Z,15.33
2023-04-26T13:48:14.769Z,15.18
2023-04-26T13:50:44.874Z,15.22
2023-04-26T13:53:15.143Z,15.30
2023-04-26T13:55:45.093Z,15.33
2023-04-26T13:58:15.284Z,15.37
2023-04-26T14:00:45.627Z,15.29
2023-04-26T14:03:18.532Z,15.22
2023-04-26T14:05:56.834Z,15.27
2023-04-26T14:08:26.933Z,15.38
2023-04-26T14:10:56.954Z,15.48
2023-04-26T14:13:26.972Z,15.53
2023-04-26T14:15:58.784Z,15.42
2023-04-26T14:18:31.433Z,15.24
2023-04-26T14:21:01.537Z,15.19
2023-04-26T14:23:31.480Z,15.19
2023-04-26T14:26:01.508Z,15.16
2023-04-26T14:28:33.423Z,15.19
2023-04-26T14:31:03.531Z,15.21
2023-04-26T14:33:36.107Z,15.25
2023-04-26T14:36:06.379Z,15.20
2023-04-26T14:38:36.589Z,15.18
2023-04-26T14:41:07.062Z,15.24
2023-04-26T14:43:37.031Z,15.28
2023-04-26T14:46:08.821Z,15.34
2023-04-26T14:48:41.348Z,15.48
2023-04-26T14:51:11.378Z,15.54
2023-04-26T14:53:41.606Z,15.59
2023-04-26T14:56:11.525Z,15.60
2023-04-26T14:58:41.482Z,15.57
2023-04-26T15:01:11.491Z,15.49
2023-04-26T15:03:44.322Z,15.45
2023-04-26T15:06:14.314Z,15.24
2023-04-26T15:08:44.283Z,15.22
2023-04-26T15:11:14.531Z,15.33
2023-04-26T15:13:44.349Z,15.39
2023-04-26T15:16:14.491Z,15.37
2023-04-26T15:18:47.173Z,15.33
2023-04-26T15:21:20.254Z,15.29
2023-04-26T15:23:50.138Z,15.34
2023-04-26T15:26:20.359Z,15.37
2023-04-26T15:28:50.254Z,15.34
2023-04-26T15:31:20.100Z,15.29
2023-04-26T15:33:52.741Z,15.31
2023-04-26T15:36:22.880Z,15.27
2023-04-26T15:38:53.326Z,15.28
2023-04-26T15:41:23.582Z,15.34
2023-04-26T15:43:56.352Z,15.47
2023-04-26T15:46:26.451Z,15.53
2023-04-26T15:48:59.012Z,15.52
2023-04-26T15:51:28.977Z,15.54
2023-04-26T15:53:59.020Z,15.31
2023-04-26T15:56:29.480Z,15.07
2023-04-26T15:58:59.543Z,14.92
2023-04-26T16:01:33.415Z,14.85
2023-04-26T16:04:06.109Z,14.84
2023-04-26T16:06:36.251Z,14.87
2023-04-26T16:09:23.926Z,14.82
2023-04-26T16:11:55.620Z,14.65
2023-04-26T16:14:31.861Z,14.51
2023-04-26T16:17:01.965Z,14.49
2023-04-26T16:19:34.610Z,14.45
2023-04-26T16:22:04.533Z,14.42
2023-04-26T16:24:34.471Z,14.40
2023-04-26T16:27:14.965Z,14.44
2023-04-26T16:29:45.312Z,14.50
2023-04-26T16:32:15.233Z,14.57
2023-04-26T16:34:48.823Z,14.61
2023-04-26T16:37:18.766Z,14.62
2023-04-26T16:39:48.842Z,14.58
2023-04-26T16:42:18.961Z,14.54
2023-04-26T16:44:49.132Z,14.52
2023-04-26T16:47:19.038Z,14.39
2023-04-26T16:49:51.679Z,14.24
2023-04-26T16:52:21.630Z,14.15
2023-04-26T16:54:51.437Z,14.14
2023-04-26T16:57:21.295Z,14.16
2023-04-26T16:59:51.664Z,14.16
2023-04-26T17:02:21.728Z,14.23
2023-04-26T17:04:54.932Z,14.21
2023-04-26T17:07:25.138Z,14.10
2023-04-26T17:09:56.488Z,14.09
2023-04-26T17:12:26.414Z,14.07
2023-04-26T17:14:56.743Z,14.01
2023-04-26T17:17:27.721Z,13.91
2023-04-26T17:20:00.313Z,13.90
2023-04-26T17:22:30.470Z,13.79
2023-04-26T17:25:00.451Z,13.75
2023-04-26T17:27:30.515Z,13.63
2023-04-26T17:30:00.590Z,13.51
2023-04-26T17:32:30.597Z,13.40
2023-04-26T17:35:04.626Z,13.37
2023-04-26T17:37:34.455Z,13.38
2023-04-26T17:40:06.255Z,13.40
2023-04-26T17:42:37.861Z,13.36
2023-04-26T17:45:10.408Z,13.22
2023-04-26T17:47:42.573Z,13.23
2023-04-26T17:50:15.874Z,13.24
2023-04-26T17:52:46.094Z,13.15
2023-04-26T17:55:16.388Z,13.07
2023-04-26T17:57:47.062Z,13.04
2023-04-26T18:00:20.786Z,13.01
2023-04-26T18:02:50.709Z,12.99
2023-04-26T18:05:24.707Z,12.95
2023-04-26T18:07:54.734Z,12.93
2023-04-26T18:10:25.021Z,12.93
2023-04-26T18:12:55.008Z,12.91
2023-04-26T18:15:25.273Z,12.91
2023-04-26T18:17:55.683Z,12.89
2023-04-26T18:20:28.462Z,12.67
2023-04-26T18:22:58.616Z,12.62
2023-04-26T18:25:28.888Z,12.58
2023-04-26T18:27:58.953Z,12.52
2023-04-26T18:30:28.949Z,12.44
2023-04-26T18:32:59.053Z,12.48
2023-04-26T18:35:31.697Z,12.36
2023-04-26T18:38:01.578Z,12.32
2023-04-26T18:40:31.623Z,12.31
2023-04-26T18:43:02.183Z,12.28
2023-04-26T18:45:32.432Z,12.19
2023-04-26T18:48:02.406Z,12.18
2023-04-26T18:50:35.027Z,12.17
2023-04-26T18:53:04.920Z,12.15
2023-04-26T18:55:34.856Z,12.10
2023-04-26T18:58:04.815Z,12.02
2023-04-26T19:00:35.420Z,12.01
2023-04-26T19:03:05.569Z,12.01
2023-04-26T19:05:38.245Z,12.00
2023-04-26T19:08:09.220Z,12.01
2023-04-26T19:10:39.227Z,12.02
2023-04-26T19:13:09.190Z,12.01
2023-04-26T19:15:39.304Z,11.99
2023-04-26T19:18:09.361Z,12.01
2023-04-26T19:20:42.232Z,12.02
2023-04-26T19:23:12.737Z,12.03
2023-04-26T19:25:42.639Z,12.04
2023-04-26T19:28:12.664Z,12.01
2023-04-26T19:30:42.766Z,11.98
2023-04-26T19:33:13.761Z,11.99
2023-04-26T19:35:46.533Z,12.00
2023-04-26T19:38:16.702Z,12.01
2023-04-26T19:40:46.776Z,11.97
2023-04-26T19:43:17.510Z,11.92
2023-04-26T19:45:47.924Z,11.87
2023-04-26T19:48:17.949Z,11.81
2023-04-26T19:50:50.642Z,11.77
2023-04-26T19:53:20.891Z,11.73
2023-04-26T19:55:51.035Z,11.70
2023-04-26T19:58:21.012Z,11.68
2023-04-26T20:00:51.329Z,11.65
2023-04-26T20:03:21.509Z,11.63
2023-04-26T20:05:54.121Z,11.62
2023-04-26T20:08:24.078Z,11.60
2023-04-26T20:10:54.198Z,11.58
2023-04-26T20:13:24.339Z,11.53
2023-04-26T20:15:54.257Z,11.48
2023-04-26T20:18:24.166Z,11.45
2023-04-26T20:20:56.680Z,11.42
2023-04-26T20:23:26.538Z,11.38
2023-04-26T20:25:56.423Z,11.35
2023-04-26T20:28:26.913Z,11.30
2023-04-26T20:30:57.063Z,11.27
2023-04-26T20:33:27.064Z,11.24
2023-04-26T20:35:59.632Z,11.20
2023-04-26T20:38:29.620Z,11.17
2023-04-26T20:40:59.991Z,11.12
2023-04-26T20:43:29.838Z,11.10
2023-04-26T20:45:59.718Z,11.06
2023-04-26T20:48:29.863Z,11.03
2023-04-26T20:51:03.113Z,11.01
2023-04-26T20:53:33.113Z,10.99
2023-04-26T20:56:03.725Z,10.97
2023-04-26T20:58:33.901Z,10.96
2023-04-26T21:01:05.775Z,10.90
2023-04-26T21:03:39.382Z,10.86
2023-04-26T21:06:12.382Z,10.79
2023-04-26T21:08:43.254Z,10.74
2023-04-26T21:11:13.221Z,10.72
2023-04-26T21:13:43.107Z,10.68
2023-04-26T21:16:13.007Z,10.66
2023-04-26T21:18:43.030Z,10.62
2023-04-26T21:21:15.520Z,10.62
2023-04-26T21:23:45.763Z,10.57
2023-04-26T21:26:15.897Z,10.55
2023-04-26T21:28:47.655Z,10.51
2023-04-26T21:31:17.690Z,10.46
2023-04-26T21:33:47.657Z,10.43
2023-04-26T21:36:20.174Z,10.42
2023-04-26T21:38:50.216Z,10.38
2023-04-26T21:41:20.386Z,10.33
2023-04-26T21:43:50.596Z,10.30
2023-04-26T21:46:20.667Z,10.25
2023-04-26T21:48:50.992Z,10.17
2023-04-26T21:51:23.433Z,10.15
2023-04-26T21:53:53.570Z,10.12
2023-04-26T21:56:24.297Z,10.10
2023-04-26T21:58:54.726Z,10.12
2023-04-26T22:01:25.313Z,10.11
2023-04-26T22:03:57.924Z,10.12
2023-04-26T22:06:30.556Z,10.11
2023-04-26T22:09:00.498Z,10.10
2023-04-26T22:11:30.404Z,10.10
2023-04-26T22:14:01.795Z,10.11
2023-04-26T22:16:32.244Z,10.08
2023-04-26T22:19:04.559Z,10.07
2023-04-26T22:21:37.436Z,10.05
2023-04-26T22:24:10.426Z,10.01
2023-04-26T22:26:40.238Z,9.96
2023-04-26T22:29:10.510Z,9.90
2023-04-26T22:31:40.559Z,9.85
2023-04-26T22:34:10.750Z,9.83
2023-04-26T22:36:43.348Z,9.77
2023-04-26T22:39:13.595Z,9.71
2023-04-26T22:41:43.621Z,9.64
2023-04-26T22:44:13.463Z,9.60
2023-04-26T22:46:43.389Z,9.57
2023-04-26T22:49:13.559Z,9.54
2023-04-26T22:51:57.257Z,9.50
2023-04-26T22:54:36.232Z,9.44
2023-04-26T22:57:07.595Z,9.39
2023-04-26T22:59:37.518Z,9.33
2023-04-26T23:02:07.738Z,9.29
2023-04-26T23:04:37.590Z,9.23
2023-04-26T23:07:13.383Z,9.18
2023-04-26T23:09:43.327Z,9.13
2023-04-26T23:12:13.716Z,9.08
2023-04-26T23:14:43.679Z,9.04
2023-04-26T23:17:14.540Z,9.00
2023-04-26T23:19:44.631Z,8.95
2023-04-26T23:22:17.934Z,8.92
2023-04-26T23:24:47.837Z,8.88
2023-04-26T23:27:19.301Z,8.83
2023-04-26T23:29:49.642Z,8.78
2023-04-26T23:32:19.588Z,8.74
2023-04-26T23:34:49.514Z,8.69
2023-04-26T23:37:22.373Z,8.65
2023-04-26T23:39:52.341Z,8.60
2023-04-26T23:42:22.565Z,8.55
2023-04-26T23:44:52.567Z,8.50
2023-04-26T23:47:22.464Z,8.47
2023-04-26T23:49:52.521Z,8.41
2023-04-26T23:52:25.078Z,8.40
2023-04-26T23:54:55.074Z,8.34
2023-04-26T23:57:25.421Z,8.28
2023-04-26T23:59:55.860Z,8.25
